Time;durP1;ratioP1;P1;durP2;ratioP2;P2;SDS_P1;SDS_P2;PMS_P1;PMS_P2;Temp;Humidity;BMP_temperature;BMP_pressure;BME280_temperature;BME280_humidity;BME280_pressure;Samples;Min_cycle;Max_cycle;Signal;HPM_P1;HPM_P2
2021/10/04 00:00:43;;;;;;;16.90;9.98;;;;;;;1.00;100.00;102127.06;1748801;82;21494;-53
2021/10/04 00:03:10;;;;;;;18.20;11.43;;;;;;;0.98;100.00;102124.84;1748543;82;21018;-53
2021/10/04 00:05:36;;;;;;;19.73;11.35;;;;;;;0.95;100.00;102117.47;1721637;82;20889;-53
2021/10/04 00:08:03;;;;;;;21.80;11.88;;;;;;;0.92;100.00;102130.08;1721513;82;21102;-53
2021/10/04 00:10:29;;;;;;;17.30;10.30;;;;;;;0.89;100.00;102126.11;1748644;82;20904;-53
2021/10/04 00:12:57;;;;;;;20.55;10.05;;;;;;;0.89;100.00;102132.48;1748570;82;20971;-53
2021/10/04 00:15:25;;;;;;;19.82;10.75;;;;;;;0.88;100.00;102129.42;1748676;82;20976;-54
2021/10/04 00:17:53;;;;;;;19.05;10.70;;;;;;;0.85;100.00;102128.48;1748734;82;21003;-53
2021/10/04 00:20:19;;;;;;;15.80;10.48;;;;;;;0.81;100.00;102126.59;1748785;82;21127;-53
2021/10/04 00:22:46;;;;;;;21.33;10.25;;;;;;;0.78;100.00;102127.72;1721040;82;21062;-53
2021/10/04 00:25:13;;;;;;;29.30;11.88;;;;;;;0.78;100.00;102123.89;1748718;82;20968;-53
2021/10/04 00:27:40;;;;;;;19.50;11.12;;;;;;;0.79;100.00;102128.61;1748880;82;21341;-53
2021/10/04 00:30:08;;;;;;;15.08;10.60;;;;;;;0.81;100.00;102127.00;1748746;81;20948;-53
2021/10/04 00:32:39;;;;;;;19.32;10.63;;;;;;;0.82;100.00;102127.06;1748980;82;21118;-53
2021/10/04 00:35:07;;;;;;;24.45;10.18;;;;;;;0.81;100.00;102126.59;1748718;82;20984;-53
2021/10/04 00:37:33;;;;;;;19.35;10.55;;;;;;;0.81;100.00;102127.00;1746467;81;21011;-54
2021/10/04 00:40:00;;;;;;;21.27;9.45;;;;;;;0.77;100.00;102125.11;1748743;82;21459;-53
2021/10/04 00:42:26;;;;;;;15.70;9.33;;;;;;;0.74;100.00;102124.55;1748936;82;21545;-53
2021/10/04 00:44:52;;;;;;;19.12;10.30;;;;;;;0.68;100.00;102128.94;1748633;82;21226;-53
2021/10/04 00:47:19;;;;;;;17.60;10.43;;;;;;;0.65;100.00;102127.94;1748771;82;20964;-53
2021/10/04 00:49:48;;;;;;;17.23;10.30;;;;;;;0.62;100.00;102129.03;1748790;82;20971;-53
2021/10/04 00:52:14;;;;;;;14.63;9.68;;;;;;;0.57;100.00;102127.13;1748689;82;20984;-53
2021/10/04 00:54:41;;;;;;;19.87;10.55;;;;;;;0.53;100.00;102132.03;1748686;81;20917;-53
2021/10/04 00:57:07;;;;;;;23.98;10.48;;;;;;;0.48;100.00;102124.14;1748631;81;21726;-53
2021/10/04 00:59:34;;;;;;;21.30;10.75;;;;;;;0.43;100.00;102125.59;1748905;82;21462;-53
2021/10/04 01:02:00;;;;;;;24.75;9.80;;;;;;;0.37;100.00;102127.42;1748540;82;21058;-53
2021/10/04 01:04:27;;;;;;;21.20;9.73;;;;;;;0.35;100.00;102137.05;1748691;82;20929;-53
2021/10/04 01:06:55;;;;;;;24.47;11.03;;;;;;;0.30;100.00;102133.40;1748568;82;21011;-53
2021/10/04 01:09:22;;;;;;;18.32;10.65;;;;;;;0.26;100.00;102136.21;1748597;82;21070;-53
2021/10/04 01:11:48;;;;;;;22.37;9.85;;;;;;;0.22;100.00;102135.17;1748618;81;21558;-53
2021/10/04 01:14:16;;;;;;;25.23;10.53;;;;;;;0.20;100.00;102136.77;1748654;82;21521;-53
2021/10/04 01:16:43;;;;;;;18.17;12.37;;;;;;;0.19;100.00;102136.67;1748457;82;20971;-53
2021/10/04 01:19:11;;;;;;;15.85;10.93;;;;;;;0.18;100.00;102134.92;1748607;81;20952;-53
2021/10/04 01:21:38;;;;;;;18.42;11.57;;;;;;;0.19;100.00;102136.29;1748895;82;21948;-53
2021/10/04 01:24:06;;;;;;;19.23;11.68;;;;;;;0.19;100.00;102133.74;1748600;82;21509;-53
2021/10/04 01:26:32;;;;;;;22.77;11.20;;;;;;;0.23;100.00;102134.75;1721232;82;20948;-53
2021/10/04 01:28:59;;;;;;;23.65;12.65;;;;;;;0.24;100.00;102136.50;1748520;81;20916;-53
2021/10/04 01:31:25;;;;;;;18.92;11.28;;;;;;;0.22;100.00;102135.17;1748628;82;20995;-53
2021/10/04 01:33:54;;;;;;;17.55;10.93;;;;;;;0.28;100.00;102135.47;1748538;82;21095;-53
2021/10/04 01:36:20;;;;;;;19.35;10.53;;;;;;;0.27;100.00;102129.91;1748654;82;20979;-52
2021/10/04 01:38:48;;;;;;;17.20;11.60;;;;;;;0.24;100.00;102131.41;1748603;82;20967;-53
2021/10/04 01:41:14;;;;;;;17.70;10.32;;;;;;;0.24;100.00;102136.50;1748552;81;20897;-53
2021/10/04 01:43:41;;;;;;;18.12;10.50;;;;;;;0.23;100.00;102137.30;1748601;81;20947;-53
2021/10/04 01:46:07;;;;;;;19.42;10.93;;;;;;;0.20;100.00;102134.22;1748644;82;21799;-53
2021/10/04 01:48:34;;;;;;;17.05;10.65;;;;;;;0.18;100.00;102134.54;1748655;82;21501;-53
2021/10/04 01:51:00;;;;;;;21.73;10.30;;;;;;;0.19;100.00;102135.02;1748649;81;20989;-53
2021/10/04 01:53:27;;;;;;;13.53;9.75;;;;;;;0.17;100.00;102139.16;1748537;81;21517;-53
2021/10/04 01:55:54;;;;;;;21.12;11.70;;;;;;;0.14;100.00;102137.73;1748471;82;20921;-53
2021/10/04 01:58:21;;;;;;;18.85;10.58;;;;;;;0.09;100.00;102132.39;1748630;82;21266;-53
2021/10/04 02:00:47;;;;;;;16.15;9.60;;;;;;;0.08;100.00;102141.21;1748443;81;20960;-53
2021/10/04 02:03:14;;;;;;;21.85;11.08;;;;;;;0.04;100.00;102136.77;1748624;82;20960;-53
2021/10/04 02:05:40;;;;;;;17.12;10.63;;;;;;;-0.02;100.00;102136.92;1748598;82;20968;-53
2021/10/04 02:08:06;;;;;;;17.07;10.03;;;;;;;-0.09;100.00;102134.87;1748762;82;20928;-53
2021/10/04 02:10:36;;;;;;;17.27;10.05;;;;;;;-0.15;100.00;102141.78;1748626;81;21102;-53
2021/10/04 02:13:05;;;;;;;13.70;9.78;;;;;;;-0.20;100.00;102139.77;1748778;82;20936;-53
2021/10/04 02:15:32;;;;;;;20.17;10.93;;;;;;;-0.25;100.00;102143.75;1748646;82;20932;-52
2021/10/04 02:17:59;;;;;;;26.05;10.88;;;;;;;-0.32;100.00;102142.16;1748816;82;20959;-53
2021/10/04 02:20:29;;;;;;;15.75;9.80;;;;;;;-0.36;100.00;102149.16;1748574;82;20951;-52
2021/10/04 02:22:56;;;;;;;16.85;9.95;;;;;;;-0.40;100.00;102153.98;1748857;82;21044;-52
2021/10/04 02:25:22;;;;;;;14.75;10.08;;;;;;;-0.44;100.00;102156.38;1748583;82;21486;-52
2021/10/04 02:27:49;;;;;;;14.98;9.05;;;;;;;-0.45;100.00;102160.09;1748918;82;21499;-52
2021/10/04 02:30:20;;;;;;;19.17;9.35;;;;;;;-0.43;100.00;102157.23;1748560;82;21458;-52
2021/10/04 02:32:47;;;;;;;16.90;9.10;;;;;;;-0.42;100.00;102148.80;1748833;82;20935;-52
2021/10/04 02:35:13;;;;;;;17.75;8.90;;;;;;;-0.37;100.00;102155.05;1721162;82;21913;-52
2021/10/04 02:37:40;;;;;;;14.75;9.10;;;;;;;-0.34;100.00;102151.39;1721173;82;20984;-52
2021/10/04 02:40:09;;;;;;;21.70;8.78;;;;;;;-0.32;100.00;102151.45;1748619;82;20929;-52
2021/10/04 02:42:35;;;;;;;12.00;8.30;;;;;;;-0.30;100.00;102152.41;1748808;82;21549;-53
2021/10/04 02:45:04;;;;;;;16.70;9.00;;;;;;;-0.24;100.00;102151.48;1748568;82;21481;-53
2021/10/04 02:47:31;;;;;;;18.20;8.65;;;;;;;-0.23;100.00;102153.61;1748758;82;21091;-53
2021/10/04 02:49:57;;;;;;;15.58;8.85;;;;;;;-0.25;100.00;102157.38;1748477;82;20980;-53
2021/10/04 02:52:24;;;;;;;14.15;8.68;;;;;;;-0.26;100.00;102161.95;1748727;82;20976;-53
2021/10/04 02:54:50;;;;;;;12.35;8.10;;;;;;;-0.24;100.00;102156.95;1748495;81;21549;-53
2021/10/04 02:57:16;;;;;;;14.38;9.33;;;;;;;-0.25;100.00;102165.00;1748684;82;21027;-53
2021/10/04 02:59:43;;;;;;;16.95;9.90;;;;;;;-0.27;100.00;102163.16;1748662;82;21135;-53
2021/10/04 03:02:09;;;;;;;15.45;8.05;;;;;;;-0.30;100.00;102162.20;1748682;82;20941;-53
2021/10/04 03:04:36;;;;;;;15.15;8.73;;;;;;;-0.31;100.00;102171.02;1748617;82;20936;-53
2021/10/04 03:07:03;;;;;;;17.75;8.28;;;;;;;-0.34;100.00;102173.02;1748613;82;20960;-52
2021/10/04 03:10:34;;;;;;;11.78;7.80;;;;;;;-0.35;100.00;102161.09;1797520;79;22772;-52
2021/10/04 03:13:01;;;;;;;14.43;8.13;;;;;;;-0.42;100.00;102167.03;1757216;81;21482;-52
2021/10/04 03:15:27;;;;;;;18.98;9.38;;;;;;;-0.45;100.00;102166.08;1737988;81;21576;-52
2021/10/04 03:17:54;;;;;;;21.23;9.55;;;;;;;-0.48;100.00;102166.30;1757157;81;20963;-53
2021/10/04 03:20:20;;;;;;;17.62;9.75;;;;;;;-0.51;100.00;102168.67;1757285;81;20979;-53
2021/10/04 03:22:46;;;;;;;25.30;11.70;;;;;;;-0.54;100.00;102170.64;1757278;81;20932;-53
2021/10/04 03:25:13;;;;;;;39.75;23.70;;;;;;;-0.57;100.00;102170.48;1757384;81;20947;-53
2021/10/04 03:27:39;;;;;;;41.60;22.27;;;;;;;-0.61;100.00;102169.45;1757331;81;21156;-53
2021/10/04 03:30:07;;;;;;;34.30;20.37;;;;;;;-0.63;100.00;102169.77;1738084;81;20967;-53
2021/10/04 03:32:36;;;;;;;35.78;18.40;;;;;;;-0.66;100.00;102165.75;1763522;81;21509;-53
2021/10/04 03:35:05;;;;;;;30.40;16.48;;;;;;;-0.69;100.00;102164.73;1757389;81;21011;-53
2021/10/04 03:37:31;;;;;;;30.40;17.98;;;;;;;-0.71;100.00;102176.08;1763675;81;21011;-53
2021/10/04 03:39:58;;;;;;;23.38;13.88;;;;;;;-0.73;100.00;102170.03;1757342;81;21119;-53
2021/10/04 03:42:24;;;;;;;28.55;14.55;;;;;;;-0.75;100.00;102177.97;1742269;81;20950;-53
2021/10/04 03:44:50;;;;;;;22.90;12.78;;;;;;;-0.77;100.00;102174.06;1757306;81;20975;-53
2021/10/04 03:47:17;;;;;;;19.95;11.00;;;;;;;-0.76;100.00;102174.95;1757483;80;21619;-53
2021/10/04 03:49:44;;;;;;;22.90;12.33;;;;;;;-0.74;100.00;102170.83;1757144;81;20979;-53
2021/10/04 03:52:10;;;;;;;15.05;10.78;;;;;;;-0.73;100.00;102173.84;1757502;81;21035;-53
2021/10/04 03:54:37;;;;;;;17.67;10.53;;;;;;;-0.74;100.00;102165.36;1757277;81;20893;-53
2021/10/04 03:57:03;;;;;;;26.30;10.48;;;;;;;-0.70;100.00;102170.61;1757597;81;20929;-53
2021/10/04 03:59:30;;;;;;;16.67;10.08;;;;;;;-0.69;100.00;102170.67;1757163;81;20921;-53
2021/10/04 04:01:57;;;;;;;20.88;11.12;;;;;;;-0.69;100.00;102174.91;1756627;81;20971;-53
2021/10/04 04:04:24;;;;;;;26.75;17.15;;;;;;;-0.68;100.00;102174.11;1719235;82;21011;-53
2021/10/04 04:06:50;;;;;;;24.63;16.07;;;;;;;-0.67;100.00;102177.14;1748997;82;21038;-53
2021/10/04 04:09:16;;;;;;;29.98;19.17;;;;;;;-0.65;100.00;102171.73;1749204;81;20972;-52
2021/10/04 04:11:44;;;;;;;31.33;19.80;;;;;;;-0.63;100.00;102179.94;1749854;82;21030;-52
2021/10/04 04:14:10;;;;;;;63.95;39.65;;;;;;;-0.63;100.00;102172.31;1722058;82;20941;-52
2021/10/04 04:16:38;;;;;;;35.48;21.57;;;;;;;-0.61;100.00;102177.47;1749854;82;21967;-53
2021/10/04 04:19:05;;;;;;;31.40;18.95;;;;;;;-0.56;100.00;102180.27;1749762;80;22275;-53
2021/10/04 04:21:34;;;;;;;20.75;13.45;;;;;;;-0.52;100.00;102182.19;1749330;82;20920;-54
2021/10/04 04:24:00;;;;;;;25.52;13.22;;;;;;;-0.48;100.00;102187.92;1749155;82;20984;-53
2021/10/04 04:26:26;;;;;;;51.45;26.82;;;;;;;-0.43;100.00;102186.50;1749442;82;21537;-53
2021/10/04 04:28:53;;;;;;;39.05;18.15;;;;;;;-0.34;100.00;102187.39;1749265;82;21588;-53
2021/10/04 04:31:19;;;;;;;20.95;12.43;;;;;;;-0.18;100.00;102182.34;1749416;82;21021;-54
2021/10/04 04:33:46;;;;;;;20.72;11.68;;;;;;;-0.02;100.00;102185.31;1749280;82;20901;-54
2021/10/04 04:36:12;;;;;;;18.05;11.75;;;;;;;0.10;100.00;102191.45;1721930;82;20968;-53
2021/10/04 04:38:38;;;;;;;19.50;10.32;;;;;;;0.24;100.00;102190.00;1749243;81;21548;-54
2021/10/04 04:41:05;;;;;;;15.98;9.58;;;;;;;0.37;100.00;102194.05;1749560;82;21092;-53
2021/10/04 04:43:32;;;;;;;20.65;10.95;;;;;;;0.50;100.00;102198.11;1749442;82;21457;-53
2021/10/04 04:45:58;;;;;;;43.95;15.13;;;;;;;0.60;100.00;102207.98;1749535;82;20908;-54
2021/10/04 04:48:24;;;;;;;36.93;15.68;;;;;;;0.69;100.00;102199.52;1749187;82;20920;-54
2021/10/04 04:50:51;;;;;;;34.80;17.40;;;;;;;0.77;100.00;102201.19;1721440;82;20952;-54
2021/10/04 04:53:17;;;;;;;39.42;16.10;;;;;;;0.88;100.00;102203.37;1749349;82;21125;-54
2021/10/04 04:55:43;;;;;;;37.95;16.77;;;;;;;0.96;100.00;102205.52;1749527;82;20917;-54
2021/10/04 04:58:10;;;;;;;31.42;16.67;;;;;;;1.05;100.00;102204.23;1749206;82;21494;-54
2021/10/04 05:00:36;;;;;;;22.77;13.93;;;;;;;1.11;100.00;102206.66;1749702;82;21518;-53
2021/10/04 05:03:02;;;;;;;31.07;13.80;;;;;;;1.20;100.00;102211.34;1749179;82;21549;-53
2021/10/04 05:05:29;;;;;;;25.72;14.38;;;;;;;1.29;100.00;102203.25;1749323;82;21858;-53
2021/10/04 05:07:56;;;;;;;31.35;14.85;;;;;;;1.41;100.00;102209.34;1749280;82;21487;-54
2021/10/04 05:10:22;;;;;;;33.63;14.45;;;;;;;1.53;100.00;102210.33;1685792;82;21527;-53
2021/10/04 05:12:49;;;;;;;23.27;13.10;;;;;;;1.66;100.00;102207.56;1745703;82;21004;-54
2021/10/04 05:15:16;;;;;;;26.27;13.38;;;;;;;1.80;100.00;102211.12;1745670;82;21553;-54
2021/10/04 05:17:43;;;;;;;28.62;12.03;;;;;;;1.94;100.00;102208.81;1745852;81;21494;-54
2021/10/04 05:20:11;;;;;;;18.65;12.33;;;;;;;2.09;100.00;102217.95;1745337;81;20936;-54
2021/10/04 05:22:38;;;;;;;21.65;12.75;;;;;;;2.23;100.00;102212.18;1716059;82;20933;-54
2021/10/04 05:25:06;;;;;;;22.80;11.43;;;;;;;2.36;100.00;102208.48;1745471;82;20956;-54
2021/10/04 05:27:33;;;;;;;23.00;11.33;;;;;;;2.51;100.00;102214.27;1716104;82;20948;-54
2021/10/04 05:29:59;;;;;;;21.68;10.95;;;;;;;2.63;100.00;102215.20;1745511;82;22192;-54
2021/10/04 05:32:26;;;;;;;27.90;10.90;;;;;;;2.76;100.00;102216.98;1745360;81;20900;-53
2021/10/04 05:34:52;;;;;;;18.67;9.93;;;;;;;2.87;100.00;102222.16;1745466;82;20987;-53
2021/10/04 05:37:19;;;;;;;22.05;9.65;;;;;;;2.99;100.00;102221.80;1745709;82;20904;-53
2021/10/04 05:39:46;;;;;;;20.23;9.50;;;;;;;3.12;100.00;102214.22;1745405;82;20968;-53
2021/10/04 05:42:12;;;;;;;21.75;9.80;;;;;;;3.26;100.00;102218.61;1745799;82;21112;-53
2021/10/04 05:44:38;;;;;;;14.90;9.83;;;;;;;3.37;100.00;102216.05;1745444;82;21454;-53
2021/10/04 05:47:05;;;;;;;17.85;9.83;;;;;;;3.49;100.00;102222.06;1745646;82;21576;-53
2021/10/04 05:49:31;;;;;;;25.70;9.50;;;;;;;3.61;100.00;102222.95;1716153;82;20877;-53
2021/10/04 05:51:58;;;;;;;20.10;9.58;;;;;;;3.72;100.00;102224.25;1715882;82;20984;-52
2021/10/04 05:54:25;;;;;;;22.45;9.80;;;;;;;3.86;100.00;102227.73;1745560;82;21776;-53
2021/10/04 05:56:51;;;;;;;22.22;9.93;;;;;;;3.99;100.00;102229.06;1745687;82;20991;-53
2021/10/04 05:59:17;;;;;;;24.98;9.28;;;;;;;4.13;100.00;102233.02;1745431;82;22191;-52
2021/10/04 06:01:45;;;;;;;16.82;9.35;;;;;;;4.28;100.00;102233.98;1715862;82;20933;-52
2021/10/04 06:04:11;;;;;;;27.37;9.88;;;;;;;4.43;99.95;102235.36;1745553;81;20893;-55
2021/10/04 06:06:37;;;;;;;22.05;9.78;;;;;;;4.58;99.03;102229.89;1745653;81;21156;-54
2021/10/04 06:09:04;;;;;;;17.15;9.30;;;;;;;4.87;96.52;102220.60;1745338;81;21000;-54
2021/10/04 06:11:30;;;;;;;21.10;8.68;;;;;;;4.87;96.52;102220.60;1749120;82;20931;-54
2021/10/04 06:13:57;;;;;;;21.02;9.40;;;;;;;5.06;95.51;102219.08;1749202;82;20932;-54
2021/10/04 06:16:24;;;;;;;17.55;8.60;;;;;;;5.23;94.45;102226.04;1749161;82;20940;-54
2021/10/04 06:18:51;;;;;;;15.72;9.10;;;;;;;5.39;92.58;102232.10;1749167;82;21158;-54
2021/10/04 06:21:18;;;;;;;31.17;9.35;;;;;;;5.56;90.65;102235.22;1721792;82;20967;-54
2021/10/04 06:23:45;;;;;;;21.05;8.65;;;;;;;5.72;88.78;102237.84;1749147;82;20972;-54
2021/10/04 06:26:12;;;;;;;22.22;9.15;;;;;;;5.86;88.10;102234.40;1749120;82;21019;-54
2021/10/04 06:28:39;;;;;;;21.95;10.48;;;;;;;5.98;86.95;102231.31;1749127;82;20968;-54
2021/10/04 06:31:05;;;;;;;21.40;9.30;;;;;;;6.13;86.61;102237.74;1749029;82;21264;-54
2021/10/04 06:33:33;;;;;;;19.95;8.70;;;;;;;6.26;83.67;102244.10;1749040;82;21501;-54
2021/10/04 06:35:59;;;;;;;19.55;8.23;;;;;;;6.39;81.55;102235.91;1749308;82;20968;-54
2021/10/04 06:38:25;;;;;;;16.45;8.18;;;;;;;6.55;81.10;102239.77;1749181;82;21023;-54
2021/10/04 06:40:52;;;;;;;19.55;8.78;;;;;;;6.66;80.56;102240.05;1749150;82;21007;-54
2021/10/04 06:43:18;;;;;;;19.27;9.13;;;;;;;6.78;79.56;102234.36;1749087;82;21188;-54
2021/10/04 06:45:44;;;;;;;15.50;7.40;;;;;;;6.90;78.56;102232.08;1749176;82;20944;-54
2021/10/04 06:48:11;;;;;;;20.10;8.55;;;;;;;7.02;77.57;102231.95;1721490;82;20999;-52
2021/10/04 06:50:37;;;;;;;15.15;6.87;;;;;;;7.13;75.77;102236.08;1748976;82;20980;-54
2021/10/04 06:53:04;;;;;;;20.62;7.60;;;;;;;7.28;76.21;102229.13;1749470;82;20971;-54
2021/10/04 06:55:30;;;;;;;19.52;7.50;;;;;;;7.40;74.92;102229.84;1749080;81;21275;-54
2021/10/04 06:57:56;;;;;;;23.40;8.10;;;;;;;7.53;74.52;102231.84;1749258;82;21467;-55
2021/10/04 07:00:23;;;;;;;21.12;7.87;;;;;;;7.68;74.18;102232.59;1749240;82;21498;-54
2021/10/04 07:02:52;;;;;;;23.67;7.58;;;;;;;7.83;72.63;102229.92;1749216;82;21486;-54
2021/10/04 07:05:20;;;;;;;27.37;8.48;;;;;;;7.95;71.83;102231.88;1749229;82;20999;-54
2021/10/04 07:07:48;;;;;;;19.32;7.92;;;;;;;8.07;69.88;102231.27;1749341;82;20992;-54
2021/10/04 07:10:15;;;;;;;10.85;7.45;;;;;;;8.20;69.51;102233.23;1744154;81;21550;-54
2021/10/04 07:12:42;;;;;;;21.62;7.05;;;;;;;8.34;68.58;102237.41;1714261;82;20968;-54
2021/10/04 07:15:11;;;;;;;21.02;6.97;;;;;;;8.43;68.35;102235.39;1714029;82;22392;-54
2021/10/04 07:17:38;;;;;;;18.87;6.33;;;;;;;8.54;66.39;102235.63;1735072;81;20925;-52
2021/10/04 07:20:06;;;;;;;10.23;6.17;;;;;;;8.65;66.46;102235.83;1735400;82;21171;-52
2021/10/04 07:22:32;;;;;;;13.60;6.62;;;;;;;8.76;64.55;102227.88;1735188;82;20921;-52
2021/10/04 07:24:59;;;;;;;15.15;6.15;;;;;;;8.86;64.70;102237.50;1735258;82;20942;-53
2021/10/04 07:27:25;;;;;;;13.40;7.12;;;;;;;8.99;64.01;102232.56;1735188;82;21217;-53
2021/10/04 07:29:52;;;;;;;11.53;5.78;;;;;;;9.11;63.40;102233.19;1735414;82;21573;-53
2021/10/04 07:32:18;;;;;;;9.85;5.87;;;;;;;9.26;63.50;102230.83;1735254;82;21124;-52
2021/10/04 07:34:44;;;;;;;12.13;6.58;;;;;;;9.40;62.76;102232.77;1735390;82;20929;-52
2021/10/04 07:37:11;;;;;;;9.80;6.50;;;;;;;9.54;62.41;102240.72;1713991;82;20968;-52
2021/10/04 07:39:37;;;;;;;20.52;7.72;;;;;;;9.69;62.33;102241.35;1714155;82;21016;-53
2021/10/04 07:42:04;;;;;;;19.27;7.80;;;;;;;9.82;61.95;102238.51;1735163;82;20964;-53
2021/10/04 07:44:30;;;;;;;17.98;6.80;;;;;;;9.94;61.77;102236.06;1735161;82;21065;-53
2021/10/04 07:46:57;;;;;;;17.48;7.08;;;;;;;10.08;59.62;102232.80;1735109;82;20973;-53
2021/10/04 07:49:25;;;;;;;22.55;7.17;;;;;;;10.19;59.51;102232.07;1735141;82;20935;-53
2021/10/04 07:51:51;;;;;;;21.07;6.60;;;;;;;10.32;60.24;102230.48;1735095;82;20932;-53
2021/10/04 07:54:18;;;;;;;16.48;6.92;;;;;;;10.49;60.12;102224.66;1735495;82;21005;-53
2021/10/04 07:56:45;;;;;;;14.93;5.92;;;;;;;10.71;58.52;102226.14;1714217;82;21903;-52
2021/10/04 07:59:11;;;;;;;18.67;6.90;;;;;;;10.88;58.58;102221.98;1735324;82;20925;-53
2021/10/04 08:01:37;;;;;;;20.00;9.13;;;;;;;11.05;58.31;102224.70;1714482;82;21604;-53
2021/10/04 08:04:05;;;;;;;23.12;7.35;;;;;;;11.25;57.31;102224.44;1735082;82;20960;-53
2021/10/04 08:06:32;;;;;;;27.00;14.70;;;;;;;11.45;57.01;102225.41;1735189;81;20894;-53
2021/10/04 08:09:00;;;;;;;20.37;10.35;;;;;;;11.68;56.39;102220.78;1735227;82;20937;-53
2021/10/04 08:11:27;;;;;;;20.23;10.30;;;;;;;11.89;54.71;102225.64;1745035;82;21093;-53
2021/10/04 08:13:53;;;;;;;27.42;10.88;;;;;;;12.04;52.84;102224.87;1749215;82;20972;-53
2021/10/04 08:16:25;;;;;;;48.40;25.68;;;;;;;12.17;51.91;102220.58;1721638;82;20873;-53
2021/10/04 08:18:50;;;;;;;19.30;11.08;;;;;;;12.31;51.36;102224.09;1748281;82;20905;-53
2021/10/04 08:21:18;;;;;;;17.15;5.85;;;;;;;12.47;51.89;102218.50;1749416;82;21103;-53
2021/10/04 08:23:45;;;;;;;12.80;5.20;;;;;;;12.69;51.76;102213.75;1749168;82;21039;-53
2021/10/04 08:26:11;;;;;;;14.25;5.92;;;;;;;12.95;52.18;102218.97;1749440;82;21453;-53
2021/10/04 08:28:38;;;;;;;10.28;4.80;;;;;;;13.25;48.32;102212.00;1749157;81;20987;-54
2021/10/04 08:31:04;;;;;;;13.80;4.58;;;;;;;13.33;47.70;102209.39;1749091;82;21031;-53
2021/10/04 08:33:32;;;;;;;7.53;4.35;;;;;;;13.44;47.87;102205.05;1749242;82;21124;-53
2021/10/04 08:35:59;;;;;;;10.00;4.37;;;;;;;13.61;47.72;102198.95;1749421;82;20924;-53
2021/10/04 08:38:27;;;;;;;25.60;11.38;;;;;;;13.80;47.09;102193.23;1749177;82;21030;-53
2021/10/04 08:40:53;;;;;;;10.10;5.37;;;;;;;14.00;46.28;102190.97;1749452;82;20937;-53
2021/10/04 08:43:20;;;;;;;8.20;3.90;;;;;;;14.17;44.97;102190.88;1749165;82;20944;-53
2021/10/04 08:45:47;;;;;;;16.00;3.87;;;;;;;14.24;43.75;102193.86;1721816;82;21052;-53
2021/10/04 08:48:14;;;;;;;13.55;4.58;;;;;;;14.29;43.29;102192.12;1721752;82;20968;-53
2021/10/04 08:50:42;;;;;;;13.38;4.15;;;;;;;14.37;43.46;102182.92;1749199;82;20987;-53
2021/10/04 08:53:08;;;;;;;6.53;3.60;;;;;;;14.49;42.72;102184.16;1749111;82;21003;-53
2021/10/04 08:55:35;;;;;;;12.07;3.65;;;;;;;14.55;43.60;102181.95;1721700;82;20952;-53
2021/10/04 08:58:10;;;;;;;10.48;3.95;;;;;;;14.75;42.15;102181.81;1721487;82;21023;-53
2021/10/04 09:00:37;;;;;;;5.87;3.47;;;;;;;14.96;42.10;102179.02;1749507;81;20932;-53
2021/10/04 09:03:04;;;;;;;10.70;3.67;;;;;;;15.18;41.04;102181.84;1749328;82;21357;-53
2021/10/04 09:05:31;;;;;;;10.68;3.77;;;;;;;15.34;39.82;102169.95;1749200;82;20948;-53
2021/10/04 09:08:07;;;;;;;12.53;3.52;;;;;;;15.42;40.79;102168.56;1749299;82;20952;-53
2021/10/04 09:10:33;;;;;;;10.38;2.83;;;;;;;15.64;41.23;102165.24;1723507;81;21108;-54
2021/10/04 09:13:08;;;;;;;10.13;2.98;;;;;;;15.90;38.70;102153.62;1756961;81;21449;-54
2021/10/04 09:15:49;;;;;;;8.63;3.12;;;;;;;16.05;38.28;102155.16;1757010;81;21528;-54
2021/10/04 09:18:28;;;;;;;9.83;2.90;;;;;;;16.21;38.77;102153.17;1755600;81;20967;-53
2021/10/04 09:21:05;;;;;;;12.68;2.80;;;;;;;16.43;38.25;102147.61;1728747;81;20995;-53
2021/10/04 09:23:44;;;;;;;9.30;3.00;;;;;;;16.67;38.38;102145.02;1757021;81;21060;-53
2021/10/04 09:26:29;;;;;;;4.05;2.30;;;;;;;16.75;36.35;102143.59;1756668;81;20939;-53
2021/10/04 09:29:09;;;;;;;3.83;2.42;;;;;;;16.76;37.14;102140.95;1755522;81;21244;-53
2021/10/04 09:31:42;;;;;;;11.22;2.62;;;;;;;16.94;37.08;102138.45;1756872;81;20932;-52
2021/10/04 09:34:27;;;;;;;15.13;7.78;;;;;;;17.17;35.45;102133.69;1756900;81;20932;-52
2021/10/04 09:36:58;;;;;;;24.15;11.30;;;;;;;17.29;35.51;102132.58;1756810;81;21230;-53
2021/10/04 09:39:33;;;;;;;23.73;12.93;;;;;;;17.37;36.16;102128.08;1756816;81;20968;-53
2021/10/04 09:42:06;;;;;;;12.13;5.30;;;;;;;17.57;35.67;102127.65;1756848;81;21445;-53
2021/10/04 09:45:00;;;;;;;3.02;2.02;;;;;;;17.73;33.55;102123.41;1756873;81;20986;-53
2021/10/04 09:47:30;;;;;;;3.58;1.92;;;;;;;17.68;32.61;102120.88;1756813;81;20932;-54
2021/10/04 09:50:10;;;;;;;6.67;2.70;;;;;;;17.71;33.56;102118.19;1754004;81;21074;-52
2021/10/04 09:52:49;;;;;;;2.95;2.65;;;;;;;17.60;32.51;102109.72;1756234;81;20995;-52
2021/10/04 09:55:31;;;;;;;4.25;2.10;;;;;;;17.42;32.21;102110.52;1756988;81;21609;-53
2021/10/04 09:58:15;;;;;;;4.90;1.98;;;;;;;17.37;32.41;102109.30;1756923;81;20951;-53
2021/10/04 10:00:55;;;;;;;4.05;1.95;;;;;;;17.37;31.45;102096.67;1756854;81;20979;-54
2021/10/04 10:03:38;;;;;;;8.40;1.87;;;;;;;17.24;32.48;102108.69;1756883;81;21098;-54
2021/10/04 10:06:00;;;;;;;3.27;2.00;;;;;;;17.06;32.99;102098.61;1756286;81;20991;-53
2021/10/04 10:08:29;;;;;;;5.58;2.47;;;;;;;17.05;34.00;102097.73;1756906;81;20959;-53
2021/10/04 10:10:58;;;;;;;5.87;2.35;;;;;;;17.18;34.46;102098.35;1751678;81;20940;-54
2021/10/04 10:13:27;;;;;;;8.80;2.20;;;;;;;17.30;34.28;102097.23;1735149;82;21469;-54
2021/10/04 10:16:13;;;;;;;2.62;2.42;;;;;;;17.40;33.97;102094.42;1714123;82;21007;-53
2021/10/04 10:19:05;;;;;;;24.65;12.68;;;;;;;17.37;33.15;102090.98;1735264;82;20921;-53
2021/10/04 10:21:33;;;;;;;3.42;3.10;;;;;;;17.36;34.04;102099.72;1714013;82;21007;-53
2021/10/04 10:24:04;;;;;;;13.60;6.60;;;;;;;17.60;33.34;102092.70;1735035;82;20925;-53
2021/10/04 10:26:44;;;;;;;4.42;3.67;;;;;;;17.78;32.04;102078.33;1735084;82;20936;-54
2021/10/04 10:29:20;;;;;;;8.85;4.55;;;;;;;17.84;31.83;102077.33;1735404;82;20889;-53
2021/10/04 10:31:58;;;;;;;5.85;3.62;;;;;;;18.00;32.17;102073.43;1735080;82;20980;-53
2021/10/04 10:34:39;;;;;;;10.05;4.60;;;;;;;18.23;31.51;102063.74;1735274;82;21007;-53
2021/10/04 10:37:24;;;;;;;8.15;4.72;;;;;;;18.31;29.81;102068.77;1735173;82;20977;-53
2021/10/04 10:39:58;;;;;;;12.43;3.60;;;;;;;18.18;30.64;102061.66;1735637;82;20992;-54
2021/10/04 10:42:31;;;;;;;8.43;2.65;;;;;;;18.34;31.59;102061.28;1731658;82;21147;-54
2021/10/04 10:45:08;;;;;;;4.03;2.30;;;;;;;18.58;29.86;102065.05;1714406;82;21533;-53
2021/10/04 10:47:45;;;;;;;3.30;2.20;;;;;;;18.47;29.49;102064.45;1735109;82;20960;-53
2021/10/04 10:50:17;;;;;;;5.42;2.25;;;;;;;18.45;28.21;102061.01;1735436;82;21016;-52
2021/10/04 10:52:50;;;;;;;3.98;2.00;;;;;;;18.27;29.59;102061.88;1735176;82;21019;-53
2021/10/04 10:55:25;;;;;;;4.35;2.05;;;;;;;18.33;29.97;102062.19;1733752;82;21099;-53
2021/10/04 10:58:04;;;;;;;2.40;2.20;;;;;;;18.41;29.78;102063.31;1735410;82;20992;-54
2021/10/04 11:00:45;;;;;;;5.47;2.00;;;;;;;18.43;30.30;102053.64;1735279;82;21427;-54
2021/10/04 11:03:25;;;;;;;4.67;2.10;;;;;;;18.47;29.62;102063.14;1734972;82;21004;-54
2021/10/04 11:06:07;;;;;;;5.25;1.92;;;;;;;18.49;31.24;102066.58;1714098;82;21011;-54
2021/10/04 11:08:52;;;;;;;5.75;2.10;;;;;;;18.70;30.17;102048.12;1735008;82;21139;-52
2021/10/04 11:11:19;;;;;;;2.33;1.82;;;;;;;18.93;30.58;102054.02;1738313;82;21465;-52
2021/10/04 11:14:08;;;;;;;4.25;1.90;;;;;;;19.24;28.74;102058.41;1749098;82;20983;-52
2021/10/04 11:16:40;;;;;;;7.40;2.27;;;;;;;19.23;29.26;102058.00;1746911;82;21004;-53
2021/10/04 11:19:07;;;;;;;3.12;2.40;;;;;;;19.28;28.95;102058.31;1749174;82;21557;-53
2021/10/04 11:21:37;;;;;;;3.37;2.35;;;;;;;19.39;28.85;102050.52;1748921;82;21149;-53